Time;durP1;ratioP1;P1;durP2;ratioP2;P2;SDS_P1;SDS_P2;PMS_P1;PMS_P2;Temp;Humidity;BMP_temperature;BMP_pressure;BME280_temperature;BME280_humidity;BME280_pressure;Samples;Min_cycle;Max_cycle;Signal;HPM_P1;HPM_P2
2022/12/21 00:01:25;;;;;;;21.25;14.43;;;;;;;;;;4977141;28;20042;-59
2022/12/21 00:03:54;;;;;;;23.90;15.67;;;;;;;;;;4976131;28;20026;-59
2022/12/21 00:06:21;;;;;;;23.90;14.77;;;;;;;;;;4977082;28;20848;-59
2022/12/21 00:08:47;;;;;;;21.30;14.52;;;;;;;;;;4975183;28;20054;-59
2022/12/21 00:11:13;;;;;;;22.10;14.52;;;;;;;;;;4973562;28;20053;-58
2022/12/21 00:13:39;;;;;;;24.38;15.18;;;;;;;;;;4975282;28;20109;-59
2022/12/21 00:16:06;;;;;;;22.40;13.88;;;;;;;;;;4973161;28;20066;-59
2022/12/21 00:18:32;;;;;;;22.45;14.68;;;;;;;;;;4979005;28;20138;-60
2022/12/21 00:21:02;;;;;;;20.08;11.55;;;;;;;;;;4975292;28;20077;-60
2022/12/21 00:23:28;;;;;;;21.13;12.23;;;;;;;;;;4972036;28;20030;-60
2022/12/21 00:25:53;;;;;;;19.45;12.35;;;;;;;;;;4978360;28;20045;-59
2022/12/21 00:28:18;;;;;;;19.58;13.13;;;;;;;;;;4972637;28;20026;-59
2022/12/21 00:30:44;;;;;;;16.13;11.38;;;;;;;;;;4980596;28;20054;-59
2022/12/21 00:33:10;;;;;;;18.10;11.68;;;;;;;;;;4972669;28;20064;-59
2022/12/21 00:35:35;;;;;;;19.05;12.30;;;;;;;;;;4974892;28;20061;-59
2022/12/21 00:38:00;;;;;;;16.17;10.90;;;;;;;;;;4979059;28;21554;-59
2022/12/21 00:40:25;;;;;;;17.17;11.13;;;;;;;;;;4974506;28;20592;-59
2022/12/21 00:42:51;;;;;;;19.73;11.75;;;;;;;;;;4985083;28;20109;-60
2022/12/21 00:45:16;;;;;;;19.70;11.68;;;;;;;;;;4980156;28;20113;-60
2022/12/21 00:47:41;;;;;;;17.00;11.30;;;;;;;;;;4974590;28;20049;-59
2022/12/21 00:50:07;;;;;;;16.08;10.52;;;;;;;;;;4961814;28;20718;-59
2022/12/21 00:52:32;;;;;;;15.57;10.48;;;;;;;;;;4972519;28;20497;-59
2022/12/21 00:54:57;;;;;;;15.75;10.85;;;;;;;;;;4977822;28;20030;-59
2022/12/21 00:57:23;;;;;;;17.40;11.10;;;;;;;;;;4973679;28;20041;-59
2022/12/21 00:59:48;;;;;;;17.85;10.80;;;;;;;;;;4973023;28;20035;-59
2022/12/21 01:02:14;;;;;;;17.95;11.85;;;;;;;;;;4967834;28;20022;-59
2022/12/21 01:04:41;;;;;;;17.15;10.60;;;;;;;;;;4975971;28;20542;-59
2022/12/21 01:07:07;;;;;;;17.23;10.07;;;;;;;;;;4974918;28;20047;-59
2022/12/21 01:09:32;;;;;;;17.00;10.85;;;;;;;;;;4973439;28;20031;-59
2022/12/21 01:11:57;;;;;;;16.50;10.38;;;;;;;;;;4968489;28;20576;-59
2022/12/21 01:14:23;;;;;;;16.77;11.48;;;;;;;;;;4979068;28;20041;-59
2022/12/21 01:16:49;;;;;;;19.25;10.43;;;;;;;;;;4968615;28;20026;-59
2022/12/21 01:19:14;;;;;;;19.52;10.00;;;;;;;;;;4975113;28;20046;-59
2022/12/21 01:21:40;;;;;;;14.05;9.73;;;;;;;;;;4968247;28;20536;-59
2022/12/21 01:24:05;;;;;;;19.23;10.98;;;;;;;;;;4970147;28;20617;-59
2022/12/21 01:26:30;;;;;;;19.65;10.45;;;;;;;;;;4975700;28;20043;-59
2022/12/21 01:28:56;;;;;;;15.25;9.45;;;;;;;;;;4971846;28;20031;-59
2022/12/21 01:31:22;;;;;;;16.25;10.45;;;;;;;;;;4972760;28;20034;-59
2022/12/21 01:33:47;;;;;;;19.52;10.82;;;;;;;;;;4965644;28;20031;-59
2022/12/21 01:36:14;;;;;;;16.58;10.82;;;;;;;;;;4973756;28;20836;-60
2022/12/21 01:38:41;;;;;;;15.77;9.30;;;;;;;;;;4973779;28;20039;-59
2022/12/21 01:41:26;;;;;;;16.13;10.23;;;;;;;;;;4969588;28;20651;-59
2022/12/21 01:44:00;;;;;;;18.10;9.80;;;;;;;;;;4969345;28;20109;-59
2022/12/21 01:46:25;;;;;;;15.43;10.20;;;;;;;;;;4979812;28;20053;-60
2022/12/21 01:48:53;;;;;;;13.15;8.60;;;;;;;;;;4975060;28;20038;-59
2022/12/21 01:51:19;;;;;;;17.35;8.77;;;;;;;;;;4975030;28;20571;-59
2022/12/21 01:53:56;;;;;;;13.02;9.00;;;;;;;;;;4969438;28;20019;-59
2022/12/21 01:56:24;;;;;;;14.13;8.25;;;;;;;;;;4968715;28;20513;-59
2022/12/21 01:58:49;;;;;;;11.90;7.30;;;;;;;;;;4974657;28;20054;-59
2022/12/21 02:01:15;;;;;;;15.32;9.07;;;;;;;;;;4976310;28;20100;-59
2022/12/21 02:03:43;;;;;;;13.68;9.30;;;;;;;;;;4974409;28;20034;-59
2022/12/21 02:06:10;;;;;;;12.68;7.93;;;;;;;;;;4968743;28;20038;-59
2022/12/21 02:08:35;;;;;;;;;;;;;;;;;;4955686;28;20035;-60
2022/12/21 02:11:02;;;;;;;11.67;7.87;;;;;;;;;;4972889;28;20026;-59
2022/12/21 02:13:27;;;;;;;13.75;8.55;;;;;;;;;;4967572;28;20445;-59
2022/12/21 02:15:55;;;;;;;13.13;8.52;;;;;;;;;;4976857;28;20038;-59
2022/12/21 02:18:24;;;;;;;14.00;9.60;;;;;;;;;;4983260;28;20074;-59
2022/12/21 02:20:50;;;;;;;12.98;8.13;;;;;;;;;;4974691;28;20776;-59
2022/12/21 02:23:22;;;;;;;15.65;8.93;;;;;;;;;;4979861;28;20038;-58
2022/12/21 02:25:51;;;;;;;15.05;8.00;;;;;;;;;;4967583;28;20070;-58
2022/12/21 02:28:35;;;;;;;11.35;8.57;;;;;;;;;;4966980;28;20062;-58
2022/12/21 02:31:03;;;;;;;11.75;8.30;;;;;;;;;;4971742;28;20035;-57
2022/12/21 02:33:31;;;;;;;11.00;8.10;;;;;;;;;;4971203;28;20054;-60
2022/12/21 02:36:13;;;;;;;14.85;7.82;;;;;;;;;;4972497;28;20030;-58
2022/12/21 02:38:41;;;;;;;13.80;7.63;;;;;;;;;;4987147;28;20397;-57
2022/12/21 02:41:26;;;;;;;12.20;7.57;;;;;;;;;;4966288;28;20110;-58
2022/12/21 02:44:13;;;;;;;11.20;6.93;;;;;;;;;;4971896;28;20031;-58
2022/12/21 02:46:57;;;;;;;13.80;7.30;;;;;;;;;;4967631;28;20035;-58
2022/12/21 02:49:25;;;;;;;10.95;6.60;;;;;;;;;;4970278;28;20038;-58
2022/12/21 02:51:57;;;;;;;13.70;6.70;;;;;;;;;;4963858;28;20031;-58
2022/12/21 02:54:23;;;;;;;12.73;6.28;;;;;;;;;;4966867;28;20034;-58
2022/12/21 02:56:48;;;;;;;13.60;6.55;;;;;;;;;;4971412;28;20079;-58
2022/12/21 02:59:16;;;;;;;11.70;6.50;;;;;;;;;;4958945;28;20186;-58
2022/12/21 03:01:42;;;;;;;11.55;6.85;;;;;;;;;;4983072;28;20031;-57
2022/12/21 03:04:10;;;;;;;10.52;6.30;;;;;;;;;;4973111;28;20397;-58
2022/12/21 03:06:35;;;;;;;11.15;6.30;;;;;;;;;;4967405;28;20109;-58
2022/12/21 03:09:10;;;;;;;11.48;6.13;;;;;;;;;;4967286;28;20173;-57
2022/12/21 03:12:01;;;;;;;10.18;5.90;;;;;;;;;;4959002;28;20130;-58
2022/12/21 03:14:46;;;;;;;10.85;5.90;;;;;;;;;;4956939;28;20129;-58
2022/12/21 03:17:17;;;;;;;9.07;5.95;;;;;;;;;;4968188;28;20038;-58
2022/12/21 03:19:59;;;;;;;10.27;6.22;;;;;;;;;;4984406;28;20509;-58
2022/12/21 03:22:28;;;;;;;10.77;6.22;;;;;;;;;;4969688;28;20034;-58
2022/12/21 03:24:57;;;;;;;11.10;6.32;;;;;;;;;;4957609;28;20718;-58
2022/12/21 03:27:26;;;;;;;9.13;6.60;;;;;;;;;;4972129;28;20039;-58
2022/12/21 03:30:06;;;;;;;7.75;5.75;;;;;;;;;;4974890;28;20140;-60
2022/12/21 03:32:37;;;;;;;11.13;6.85;;;;;;;;;;4974497;28;20105;-58
2022/12/21 03:35:04;;;;;;;12.90;7.63;;;;;;;;;;4967738;28;20034;-59
2022/12/21 03:37:32;;;;;;;14.48;7.10;;;;;;;;;;4974987;28;20038;-58
2022/12/21 03:40:02;;;;;;;14.40;6.90;;;;;;;;;;4971193;28;20137;-58
2022/12/21 03:42:30;;;;;;;10.32;6.85;;;;;;;;;;4967087;28;20023;-59
2022/12/21 03:45:07;;;;;;;9.35;6.03;;;;;;;;;;4975705;28;20126;-59
2022/12/21 03:47:36;;;;;;;11.20;6.88;;;;;;;;;;4973100;28;20177;-59
2022/12/21 03:50:06;;;;;;;9.18;6.35;;;;;;;;;;4970661;28;20037;-59
2022/12/21 03:52:58;;;;;;;8.98;5.93;;;;;;;;;;4969780;28;20415;-59
2022/12/21 03:55:26;;;;;;;8.95;5.78;;;;;;;;;;4957765;28;20047;-59
2022/12/21 03:57:52;;;;;;;11.20;5.72;;;;;;;;;;4965941;28;20035;-58
2022/12/21 04:00:18;;;;;;;6.97;5.25;;;;;;;;;;4972730;28;20073;-59
2022/12/21 04:02:55;;;;;;;12.02;5.80;;;;;;;;;;4967964;28;20038;-59
2022/12/21 04:05:20;;;;;;;6.80;5.00;;;;;;;;;;4966523;28;20023;-59
2022/12/21 04:07:47;;;;;;;10.90;5.45;;;;;;;;;;4971100;28;20069;-59
2022/12/21 04:10:14;;;;;;;9.00;5.60;;;;;;;;;;4967348;28;20141;-59
2022/12/21 04:12:39;;;;;;;8.63;4.93;;;;;;;;;;4971733;28;20045;-59
2022/12/21 04:15:12;;;;;;;9.55;6.05;;;;;;;;;;4967278;28;20031;-59
2022/12/21 04:17:39;;;;;;;12.88;6.53;;;;;;;;;;4970334;28;20501;-59
2022/12/21 04:20:05;;;;;;;8.88;6.00;;;;;;;;;;4971182;28;20097;-58
2022/12/21 04:28:07;;;;;;;8.02;5.97;;;;;;;;;;4978559;28;20125;-59
2022/12/21 04:30:33;;;;;;;10.90;6.18;;;;;;;;;;4968181;28;20022;-59
2022/12/21 04:32:58;;;;;;;9.80;5.80;;;;;;;;;;4971438;28;20401;-59
2022/12/21 04:35:23;;;;;;;9.35;6.15;;;;;;;;;;4968192;28;20069;-59
2022/12/21 04:37:49;;;;;;;11.63;5.82;;;;;;;;;;4969071;28;20034;-60
2022/12/21 04:40:14;;;;;;;9.00;4.85;;;;;;;;;;4975816;28;20078;-60
2022/12/21 04:42:39;;;;;;;12.77;6.28;;;;;;;;;;4970049;28;20405;-59
2022/12/21 04:45:05;;;;;;;8.93;5.70;;;;;;;;;;4965530;28;20049;-59
2022/12/21 04:47:30;;;;;;;14.20;6.00;;;;;;;;;;4971161;28;20489;-59
2022/12/21 04:49:55;;;;;;;13.70;6.60;;;;;;;;;;4969770;28;20116;-59
2022/12/21 04:52:21;;;;;;;13.30;6.32;;;;;;;;;;4974330;28;20066;-58
2022/12/21 04:54:46;;;;;;;10.10;6.25;;;;;;;;;;4969600;28;20096;-58
2022/12/21 04:57:12;;;;;;;12.25;6.78;;;;;;;;;;4974848;28;20038;-59
2022/12/21 04:59:37;;;;;;;14.45;7.18;;;;;;;;;;4969119;28;20114;-59
2022/12/21 05:02:02;;;;;;;11.20;6.75;;;;;;;;;;4969951;28;20034;-59
2022/12/21 05:04:28;;;;;;;12.82;6.03;;;;;;;;;;4970422;28;20077;-59
2022/12/21 05:06:54;;;;;;;10.18;5.90;;;;;;;;;;4967182;28;20532;-59
2022/12/21 05:09:20;;;;;;;16.05;5.82;;;;;;;;;;4976003;28;20035;-59
2022/12/21 05:11:45;;;;;;;11.90;6.30;;;;;;;;;;4967506;28;20034;-60
2022/12/21 05:14:11;;;;;;;10.05;5.32;;;;;;;;;;4969415;28;20038;-59
2022/12/21 05:16:38;;;;;;;10.20;5.80;;;;;;;;;;4975963;28;20351;-59
2022/12/21 05:19:03;;;;;;;11.55;6.03;;;;;;;;;;4972333;28;20397;-59
2022/12/21 05:21:29;;;;;;;11.18;5.88;;;;;;;;;;4974737;28;20465;-60
2022/12/21 05:23:54;;;;;;;9.45;4.93;;;;;;;;;;4970452;28;20027;-59
2022/12/21 05:26:20;;;;;;;7.80;5.07;;;;;;;;;;4968511;28;20035;-58
2022/12/21 05:28:46;;;;;;;7.70;4.65;;;;;;;;;;4973743;28;20037;-59
2022/12/21 05:31:11;;;;;;;8.73;5.55;;;;;;;;;;4970619;28;20113;-59
2022/12/21 05:33:37;;;;;;;13.40;6.45;;;;;;;;;;4972343;28;20477;-60
2022/12/21 05:36:03;;;;;;;10.30;6.60;;;;;;;;;;4971747;28;20053;-59
2022/12/21 05:38:29;;;;;;;8.55;5.45;;;;;;;;;;4973292;28;20444;-59
2022/12/21 05:40:54;;;;;;;12.43;5.72;;;;;;;;;;4974319;28;20548;-59
2022/12/21 05:43:20;;;;;;;10.43;5.72;;;;;;;;;;4970421;28;20069;-59
2022/12/21 05:45:45;;;;;;;16.17;6.07;;;;;;;;;;4972022;28;20057;-61
2022/12/21 05:48:11;;;;;;;9.85;6.97;;;;;;;;;;4972708;28;20126;-58
2022/12/21 05:50:39;;;;;;;9.07;5.72;;;;;;;;;;4976219;28;20037;-63
2022/12/21 05:53:05;;;;;;;7.93;4.72;;;;;;;;;;4974503;28;20054;-59
2022/12/21 05:55:31;;;;;;;7.85;4.70;;;;;;;;;;4968134;28;20494;-59
2022/12/21 05:57:56;;;;;;;8.05;5.00;;;;;;;;;;4969813;28;20034;-59
2022/12/21 06:00:22;;;;;;;8.68;4.72;;;;;;;;;;4973661;28;20030;-59
2022/12/21 06:02:47;;;;;;;9.02;5.10;;;;;;;;;;4971108;28;20037;-59
2022/12/21 06:05:12;;;;;;;8.05;4.85;;;;;;;;;;4978403;28;20512;-59
2022/12/21 06:07:38;;;;;;;10.90;4.35;;;;;;;;;;4966739;28;20047;-59
2022/12/21 06:10:04;;;;;;;8.13;4.68;;;;;;;;;;4968894;28;20085;-59
2022/12/21 06:12:30;;;;;;;8.45;4.78;;;;;;;;;;4974463;28;20080;-59
2022/12/21 06:14:55;;;;;;;9.18;6.03;;;;;;;;;;4986429;28;20710;-59
2022/12/21 06:17:21;;;;;;;8.65;4.75;;;;;;;;;;4971395;28;20312;-58
2022/12/21 06:19:46;;;;;;;9.02;4.93;;;;;;;;;;4976654;28;20066;-59
2022/12/21 06:22:11;;;;;;;6.03;4.00;;;;;;;;;;4967984;28;20038;-59
2022/12/21 06:24:36;;;;;;;7.65;4.95;;;;;;;;;;4973675;28;20128;-59
2022/12/21 06:27:02;;;;;;;8.45;5.20;;;;;;;;;;4971402;28;20065;-59
2022/12/21 06:29:27;;;;;;;9.20;5.70;;;;;;;;;;4978427;28;20781;-59
2022/12/21 06:31:52;;;;;;;8.50;5.68;;;;;;;;;;4964453;28;20857;-59
2022/12/21 06:34:18;;;;;;;11.77;5.82;;;;;;;;;;4969590;28;20034;-62
2022/12/21 06:36:43;;;;;;;13.63;6.10;;;;;;;;;;4976298;28;20085;-59
2022/12/21 06:39:08;;;;;;;14.27;6.13;;;;;;;;;;4966499;28;20538;-59
2022/12/21 06:41:34;;;;;;;11.60;5.78;;;;;;;;;;4976228;28;20034;-59
2022/12/21 06:43:59;;;;;;;9.93;5.43;;;;;;;;;;4967223;28;20023;-59
2022/12/21 06:46:24;;;;;;;9.07;5.45;;;;;;;;;;4968323;28;20041;-59
2022/12/21 06:48:50;;;;;;;9.38;5.10;;;;;;;;;;4972206;28;20074;-58
2022/12/21 06:51:19;;;;;;;9.88;5.45;;;;;;;;;;4971597;28;21286;-59
2022/12/21 06:53:45;;;;;;;8.50;5.00;;;;;;;;;;4975711;28;20046;-59
2022/12/21 06:56:12;;;;;;;8.20;5.05;;;;;;;;;;4970302;28;21037;-59
2022/12/21 06:58:38;;;;;;;8.82;4.97;;;;;;;;;;4969030;28;20034;-59
2022/12/21 07:01:04;;;;;;;8.07;5.32;;;;;;;;;;4973275;28;20034;-60
2022/12/21 07:03:29;;;;;;;10.90;4.82;;;;;;;;;;4969519;28;20022;-60
2022/12/21 07:05:55;;;;;;;11.82;6.10;;;;;;;;;;4974751;28;20456;-59
2022/12/21 07:08:21;;;;;;;6.88;4.80;;;;;;;;;;4965000;28;20027;-60
2022/12/21 07:10:46;;;;;;;11.98;5.95;;;;;;;;;;4969327;28;20248;-60
2022/12/21 07:13:12;;;;;;;11.35;7.40;;;;;;;;;;4974750;28;20114;-59
2022/12/21 07:15:37;;;;;;;10.77;7.43;;;;;;;;;;4978631;28;20398;-59
2022/12/21 07:18:02;;;;;;;14.35;8.18;;;;;;;;;;4969724;28;20053;-59
2022/12/21 07:20:28;;;;;;;14.02;8.07;;;;;;;;;;4962943;28;20816;-59
2022/12/21 07:22:53;;;;;;;17.52;8.25;;;;;;;;;;4967028;28;20249;-59
2022/12/21 07:25:18;;;;;;;19.20;9.82;;;;;;;;;;4956275;28;20054;-59
2022/12/21 07:27:44;;;;;;;20.75;9.85;;;;;;;;;;4968773;28;20034;-59
2022/12/21 07:30:09;;;;;;;13.77;7.60;;;;;;;;;;4971549;28;20035;-63
2022/12/21 07:32:35;;;;;;;14.52;6.57;;;;;;;;;;4962664;28;20026;-60
2022/12/21 07:35:00;;;;;;;19.52;9.02;;;;;;;;;;4963335;28;20525;-59
2022/12/21 07:37:25;;;;;;;14.65;9.20;;;;;;;;;;4968686;28;20050;-59
2022/12/21 07:39:51;;;;;;;11.20;7.53;;;;;;;;;;4966398;28;20046;-60
2022/12/21 07:42:16;;;;;;;12.10;7.55;;;;;;;;;;4968398;28;20106;-59
2022/12/21 07:44:54;;;;;;;13.00;8.10;;;;;;;;;;4962121;28;20286;-59
2022/12/21 07:47:30;;;;;;;13.52;8.55;;;;;;;;;;4969270;28;20457;-59
2022/12/21 07:49:55;;;;;;;12.27;8.20;;;;;;;;;;4971406;28;20549;-62
2022/12/21 07:52:21;;;;;;;12.30;7.15;;;;;;;;;;4964628;28;20121;-59
2022/12/21 07:54:46;;;;;;;10.75;7.47;;;;;;;;;;4971021;28;20062;-61
2022/12/21 07:57:12;;;;;;;12.93;8.35;;;;;;;;;;4955913;28;20523;-59
2022/12/21 07:59:38;;;;;;;9.98;6.75;;;;;;;;;;4954112;28;20026;-60
2022/12/21 08:02:04;;;;;;;15.95;6.10;;;;;;;;;;4964146;28;20783;-60
2022/12/21 08:04:33;;;;;;;14.95;5.97;;;;;;;;;;4963536;28;20320;-60
2022/12/21 08:06:58;;;;;;;10.45;5.60;;;;;;;;;;4960486;28;20027;-60
2022/12/21 08:09:23;;;;;;;13.50;7.20;;;;;;;;;;4969504;28;20018;-60
2022/12/21 08:11:49;;;;;;;10.07;5.72;;;;;;;;;;4969098;28;20051;-60
2022/12/21 08:14:14;;;;;;;13.57;6.25;;;;;;;;;;4972455;28;20061;-60
2022/12/21 08:16:39;;;;;;;12.05;4.80;;;;;;;;;;4967320;28;20054;-60
2022/12/21 08:19:05;;;;;;;12.65;5.10;;;;;;;;;;4967745;28;20035;-59
2022/12/21 08:21:31;;;;;;;11.75;6.13;;;;;;;;;;4979973;28;21046;-59
2022/12/21 08:23:56;;;;;;;7.75;5.43;;;;;;;;;;4970053;28;20018;-59
2022/12/21 08:26:22;;;;;;;13.98;7.47;;;;;;;;;;4970136;28;20035;-59
2022/12/21 08:28:48;;;;;;;15.05;8.40;;;;;;;;;;4966779;28;20122;-59
2022/12/21 08:31:15;;;;;;;15.85;6.65;;;;;;;;;;4968288;28;20045;-59
2022/12/21 08:33:42;;;;;;;16.25;8.25;;;;;;;;;;4973246;28;20491;-59
2022/12/21 08:36:08;;;;;;;11.20;8.07;;;;;;;;;;4981189;28;20042;-59
2022/12/21 08:38:34;;;;;;;10.63;7.10;;;;;;;;;;4974081;28;20065;-59
2022/12/21 08:41:03;;;;;;;10.32;6.53;;;;;;;;;;4966695;28;20030;-59
2022/12/21 08:43:28;;;;;;;8.07;5.00;;;;;;;;;;4975687;28;20044;-58
2022/12/21 08:45:54;;;;;;;10.10;5.97;;;;;;;;;;4972535;28;20027;-59
2022/12/21 08:48:21;;;;;;;7.78;4.65;;;;;;;;;;4966648;28;20031;-60
2022/12/21 08:50:49;;;;;;;7.40;4.97;;;;;;;;;;4970231;28;20027;-60
2022/12/21 08:53:15;;;;;;;9.82;4.80;;;;;;;;;;4967350;28;20034;-60
2022/12/21 08:55:40;;;;;;;6.78;4.20;;;;;;;;;;4967164;28;20094;-59
2022/12/21 08:58:05;;;;;;;9.32;4.30;;;;;;;;;;4971144;28;20042;-60
2022/12/21 09:00:31;;;;;;;7.32;3.65;;;;;;;;;;4962977;28;20027;-60
2022/12/21 09:02:56;;;;;;;7.90;4.03;;;;;;;;;;4968273;28;20422;-59
2022/12/21 09:05:21;;;;;;;9.18;4.63;;;;;;;;;;4968762;28;20026;-60
2022/12/21 09:07:47;;;;;;;9.57;4.88;;;;;;;;;;4967409;28;20030;-60
2022/12/21 09:10:12;;;;;;;11.02;5.82;;;;;;;;;;4959682;28;20093;-60
2022/12/21 09:12:37;;;;;;;14.88;8.10;;;;;;;;;;4951446;28;20397;-59
2022/12/21 09:15:03;;;;;;;14.07;7.30;;;;;;;;;;4969504;28;20467;-60
2022/12/21 09:17:29;;;;;;;23.02;11.82;;;;;;;;;;4966023;28;20103;-60
2022/12/21 09:19:54;;;;;;;38.88;20.42;;;;;;;;;;4969358;28;20085;-60
2022/12/21 09:22:19;;;;;;;24.25;14.23;;;;;;;;;;4974156;28;20117;-60
2022/12/21 09:24:45;;;;;;;23.67;14.93;;;;;;;;;;4964397;28;20118;-60
2022/12/21 09:27:10;;;;;;;16.88;11.43;;;;;;;;;;4973259;28;20060;-60
2022/12/21 09:29:36;;;;;;;12.27;7.65;;;;;;;;;;4965476;28;20030;-59
2022/12/21 09:32:01;;;;;;;12.48;7.88;;;;;;;;;;4976097;28;20054;-58
2022/12/21 09:34:26;;;;;;;8.20;6.10;;;;;;;;;;4973646;28;20100;-58
2022/12/21 09:36:51;;;;;;;9.35;5.70;;;;;;;;;;4969742;28;20181;-58
2022/12/21 09:39:17;;;;;;;8.30;5.35;;;;;;;;;;4981771;28;20516;-58
2022/12/21 09:41:51;;;;;;;6.50;3.50;;;;;;;;;;4965501;28;20512;-59
2022/12/21 09:44:19;;;;;;;9.38;4.80;;;;;;;;;;4966253;28;20030;-59
2022/12/21 09:46:45;;;;;;;11.45;6.90;;;;;;;;;;4977016;28;20728;-58
2022/12/21 09:49:20;;;;;;;9.88;5.38;;;;;;;;;;4965124;28;20107;-59
2022/12/21 09:51:51;;;;;;;6.60;4.35;;;;;;;;;;4969856;28;20029;-59
2022/12/21 09:54:20;;;;;;;10.25;4.68;;;;;;;;;;4974677;28;20034;-59
2022/12/21 09:56:48;;;;;;;8.35;4.00;;;;;;;;;;4968029;28;20042;-58
2022/12/21 09:59:16;;;;;;;7.88;3.83;;;;;;;;;;4974416;28;20465;-59
2022/12/21 10:01:45;;;;;;;7.55;4.05;;;;;;;;;;4967116;28;20088;-59
2022/12/21 10:04:10;;;;;;;6.68;3.90;;;;;;;;;;4957499;28;20587;-58
2022/12/21 10:06:47;;;;;;;8.13;4.90;;;;;;;;;;4968678;28;20367;-59
2022/12/21 10:09:25;;;;;;;9.30;5.30;;;;;;;;;;4970348;28;20089;-60
2022/12/21 10:12:05;;;;;;;7.93;4.65;;;;;;;;;;4970115;28;20405;-60
2022/12/21 10:14:43;;;;;;;9.23;5.00;;;;;;;;;;4972574;28;20465;-59
2022/12/21 10:17:14;;;;;;;9.63;5.43;;;;;;;;;;4967341;28;20043;-59
2022/12/21 10:19:49;;;;;;;11.40;5.50;;;;;;;;;;4972554;28;20074;-59
2022/12/21 10:22:25;;;;;;;6.45;4.70;;;;;;;;;;4966031;28;20031;-59
2022/12/21 10:24:54;;;;;;;7.05;4.10;;;;;;;;;;4951944;28;20057;-60
2022/12/21 10:27:20;;;;;;;21.67;5.82;;;;;;;;;;4973114;28;20062;-60
2022/12/21 10:29:48;;;;;;;6.85;4.10;;;;;;;;;;4968894;28;20031;-60
2022/12/21 10:32:14;;;;;;;7.32;4.05;;;;;;;;;;4969566;28;20395;-61
2022/12/21 10:34:46;;;;;;;8.35;4.10;;;;;;;;;;4983575;28;20532;-60
2022/12/21 10:37:13;;;;;;;5.82;3.70;;;;;;;;;;4962999;28;20061;-59
2022/12/21 10:39:40;;;;;;;8.15;4.07;;;;;;;;;;4970349;28;20030;-59
2022/12/21 10:42:15;;;;;;;7.30;3.88;;;;;;;;;;4965453;28;20110;-59
2022/12/21 10:44:41;;;;;;;9.38;4.05;;;;;;;;;;4964721;28;20027;-59
2022/12/21 10:47:14;;;;;;;6.93;4.25;;;;;;;;;;4970331;28;20049;-60
2022/12/21 10:49:39;;;;;;;9.18;4.40;;;;;;;;;;4965216;28;20524;-60
2022/12/21 10:52:23;;;;;;;7.90;3.97;;;;;;;;;;4973401;28;20031;-63
2022/12/21 10:54:49;;;;;;;8.00;3.90;;;;;;;;;;4972746;28;20058;-60
2022/12/21 10:57:14;;;;;;;10.95;4.88;;;;;;;;;;4969702;28;20109;-59
2022/12/21 10:59:40;;;;;;;10.38;4.55;;;;;;;;;;4970649;28;20050;-61
2022/12/21 11:02:07;;;;;;;6.45;3.90;;;;;;;;;;4965413;28;20389;-59
2022/12/21 11:04:32;;;;;;;10.90;4.50;;;;;;;;;;4970194;28;20030;-59
2022/12/21 11:07:05;;;;;;;7.82;3.90;;;;;;;;;;4970178;28;20034;-60
2022/12/21 11:09:34;;;;;;;8.02;4.28;;;;;;;;;;4968378;28;20129;-59
2022/12/21 11:12:12;;;;;;;8.13;4.30;;;;;;;;;;4974586;28;20499;-59
2022/12/21 11:14:38;;;;;;;8.82;3.67;;;;;;;;;;4969088;28;20026;-60
2022/12/21 11:17:03;;;;;;;5.95;3.47;;;;;;;;;;4951211;28;20088;-59
2022/12/21 11:19:32;;;;;;;5.68;3.55;;;;;;;;;;4972021;28;20030;-59
2022/12/21 11:21:58;;;;;;;5.80;3.60;;;;;;;;;;4967415;28;20348;-59
2022/12/21 11:24:24;;;;;;;5.35;3.22;;;;;;;;;;4972127;28;20846;-59
2022/12/21 11:26:52;;;;;;;8.63;3.70;;;;;;;;;;4967116;28;20051;-59
2022/12/21 11:29:17;;;;;;;;;;;;;;;;;;4967826;28;20137;-60
2022/12/21 11:31:43;;;;;;;7.73;4.00;;;;;;;;;;4978036;28;21028;-61
2022/12/21 11:34:19;;;;;;;6.03;3.55;;;;;;;;;;4971580;28;20484;-60
2022/12/21 11:36:55;;;;;;;8.90;3.67;;;;;;;;;;4951950;28;20492;-60
2022/12/21 11:39:22;;;;;;;5.57;3.83;;;;;;;;;;4974981;28;20739;-61
2022/12/21 11:41:51;;;;;;;10.57;3.58;;;;;;;;;;4970352;28;20388;-59
2022/12/21 11:44:21;;;;;;;7.07;3.42;;;;;;;;;;4980001;28;20054;-58
2022/12/21 11:46:51;;;;;;;7.38;3.38;;;;;;;;;;4964981;28;20042;-58
2022/12/21 11:49:44;;;;;;;7.60;3.63;;;;;;;;;;4960062;28;20652;-58
2022/12/21 11:52:09;;;;;;;8.80;3.38;;;;;;;;;;4970777;28;20585;-59
2022/12/21 11:54:39;;;;;;;8.80;3.97;;;;;;;;;;4967962;28;20117;-59
2022/12/21 11:57:23;;;;;;;7.10;3.10;;;;;;;;;;4970189;28;20338;-60
2022/12/21 11:59:54;;;;;;;4.28;3.00;;;;;;;;;;4978917;28;20026;-60
2022/12/21 12:02:19;;;;;;;4.78;3.00;;;;;;;;;;4967475;28;20023;-59
2022/12/21 12:04:54;;;;;;;4.07;2.60;;;;;;;;;;4973443;28;20224;-59
2022/12/21 12:07:38;;;;;;;4.95;2.80;;;;;;;;;;4979488;28;20031;-59
2022/12/21 12:10:38;;;;;;;4.45;2.55;;;;;;;;;;4970825;28;20063;-59
2022/12/21 12:13:22;;;;;;;5.95;2.53;;;;;;;;;;4901533;29;20051;-60
2022/12/21 12:16:08;;;;;;;6.18;2.70;;;;;;;;;;4973043;28;20125;-59
2022/12/21 12:18:45;;;;;;;3.92;2.58;;;;;;;;;;4970622;28;20687;-59
2022/12/21 12:21:13;;;;;;;5.18;2.83;;;;;;;;;;4984733;28;20150;-58
2022/12/21 12:23:47;;;;;;;6.90;2.63;;;;;;;;;;4973641;28;20106;-59
2022/12/21 12:26:31;;;;;;;4.30;2.60;;;;;;;;;;4969326;28;20034;-59
2022/12/21 12:28:56;;;;;;;5.72;2.38;;;;;;;;;;4978421;28;20485;-59
2022/12/21 12:31:34;;;;;;;5.10;2.60;;;;;;;;;;4969336;28;20027;-59
2022/12/21 12:34:11;;;;;;;5.32;2.65;;;;;;;;;;4966119;28;20073;-59
2022/12/21 12:36:46;;;;;;;4.35;2.28;;;;;;;;;;4978250;28;20489;-59
2022/12/21 12:39:28;;;;;;;3.85;2.38;;;;;;;;;;4966707;28;20085;-58
2022/12/21 12:42:00;;;;;;;4.07;2.20;;;;;;;;;;4968763;28;20500;-59
2022/12/21 12:44:44;;;;;;;5.05;2.78;;;;;;;;;;4988469;28;20528;-59
2022/12/21 12:47:27;;;;;;;5.45;2.40;;;;;;;;;;4969443;28;20038;-59
2022/12/21 12:50:11;;;;;;;8.77;2.58;;;;;;;;;;4970469;28;20082;-59
2022/12/21 12:52:59;;;;;;;4.75;2.40;;;;;;;;;;4970196;28;20033;-60
2022/12/21 12:55:25;;;;;;;3.95;2.42;;;;;;;;;;4974514;28;20038;-59
2022/12/21 12:57:50;;;;;;;6.18;2.60;;;;;;;;;;4964836;28;20034;-59
2022/12/21 13:00:18;;;;;;;6.10;2.30;;;;;;;;;;4974598;28;20039;-59
2022/12/21 13:03:02;;;;;;;4.72;2.53;;;;;;;;;;4971957;28;20026;-59
2022/12/21 13:05:36;;;;;;;6.18;3.67;;;;;;;;;;4972702;28;20481;-59
2022/12/21 13:08:13;;;;;;;7.40;3.50;;;;;;;;;;4978647;28;20054;-59
2022/12/21 13:10:39;;;;;;;5.78;3.60;;;;;;;;;;4969214;28;20026;-59
2022/12/21 13:13:10;;;;;;;6.22;3.50;;;;;;;;;;4971025;28;20030;-59
2022/12/21 13:15:35;;;;;;;9.32;2.95;;;;;;;;;;4969952;28;20165;-60
2022/12/21 13:18:07;;;;;;;4.63;2.72;;;;;;;;;;4969270;28;20043;-57
2022/12/21 13:20:33;;;;;;;4.32;2.35;;;;;;;;;;4975834;28;20472;-60
2022/12/21 13:23:19;;;;;;;5.75;2.60;;;;;;;;;;4968859;28;20022;-60
2022/12/21 13:25:51;;;;;;;5.97;2.93;;;;;;;;;;4961456;28;20042;-58
2022/12/21 13:28:20;;;;;;;6.00;3.00;;;;;;;;;;4969803;28;20062;-58
2022/12/21 13:30:47;;;;;;;4.70;3.00;;;;;;;;;;4965719;28;20284;-59
2022/12/21 13:33:14;;;;;;;5.38;2.65;;;;;;;;;;4973858;28;20049;-59
2022/12/21 13:35:48;;;;;;;5.43;3.40;;;;;;;;;;4963788;28;20080;-59
2022/12/21 13:38:22;;;;;;;4.90;2.92;;;;;;;;;;4970570;28;20039;-59
2022/12/21 13:40:54;;;;;;;6.30;3.08;;;;;;;;;;4972821;28;20034;-59
2022/12/21 13:43:26;;;;;;;3.95;2.60;;;;;;;;;;4963689;28;20033;-59
2022/12/21 13:46:01;;;;;;;6.07;3.00;;;;;;;;;;4967144;28;20760;-59
2022/12/21 13:48:28;;;;;;;5.90;2.78;;;;;;;;;;4971812;28;20098;-59
2022/12/21 13:51:12;;;;;;;4.30;2.92;;;;;;;;;;4963403;28;20055;-59
2022/12/21 13:53:56;;;;;;;6.05;2.80;;;;;;;;;;4970895;28;20050;-58
2022/12/21 13:56:33;;;;;;;4.93;2.92;;;;;;;;;;4971959;28;20113;-59
2022/12/21 13:59:02;;;;;;;4.65;2.58;;;;;;;;;;4965880;28;20030;-59
2022/12/21 14:01:28;;;;;;;8.20;4.70;;;;;;;;;;4970420;28;20023;-59
2022/12/21 14:04:13;;;;;;;7.65;3.08;;;;;;;;;;4963955;28;20707;-59
2022/12/21 14:06:51;;;;;;;4.35;2.70;;;;;;;;;;4962975;28;20101;-59
2022/12/21 14:09:35;;;;;;;6.50;3.00;;;;;;;;;;4973524;28;20052;-59
2022/12/21 14:12:12;;;;;;;4.35;2.50;;;;;;;;;;4964935;28;20034;-59
2022/12/21 14:14:56;;;;;;;5.90;2.45;;;;;;;;;;4966808;28;20113;-58
2022/12/21 14:17:29;;;;;;;4.82;2.30;;;;;;;;;;4971290;28;20035;-58
2022/12/21 14:19:55;;;;;;;5.45;2.60;;;;;;;;;;4967612;28;20110;-57
2022/12/21 14:22:40;;;;;;;3.83;2.13;;;;;;;;;;4971294;28;20689;-58
2022/12/21 14:25:25;;;;;;;3.90;2.00;;;;;;;;;;4969477;28;20071;-60
2022/12/21 14:28:09;;;;;;;4.68;2.22;;;;;;;;;;4962440;28;20528;-58
2022/12/21 14:30:35;;;;;;;5.05;2.20;;;;;;;;;;4962879;28;20031;-63
2022/12/21 14:33:02;;;;;;;4.28;2.53;;;;;;;;;;4969308;28;20496;-58
2022/12/21 14:35:31;;;;;;;5.32;2.50;;;;;;;;;;4963164;28;20510;-58
2022/12/21 14:38:15;;;;;;;4.93;2.47;;;;;;;;;;4968680;28;20042;-58
2022/12/21 14:40:56;;;;;;;6.25;3.33;;;;;;;;;;4968685;28;20035;-58
2022/12/21 14:43:22;;;;;;;6.22;2.88;;;;;;;;;;4964103;28;20037;-59
2022/12/21 14:45:47;;;;;;;4.75;2.80;;;;;;;;;;4966532;28;20034;-59
2022/12/21 14:48:39;;;;;;;5.80;2.80;;;;;;;;;;4966789;28;20038;-58
2022/12/21 14:51:07;;;;;;;5.78;3.25;;;;;;;;;;4964361;28;20027;-58
2022/12/21 14:53:36;;;;;;;4.00;2.58;;;;;;;;;;4967171;28;20062;-59